Stratham, NH

10:44 PM EDT on May 28, 2015 (GMT -0400)
Newmarket Bay Road | | Change Station
CLOSE
Current Station
Personal Weather Station
Location: Newmarket, NH
Elevation: 92 ft
Nearby Weather Stations

Elev 92 ft 43.08 °N, 70.90 °W | Updated 37 seconds ago

Mostly Cloudy
Mostly Cloudy
67.1 °F
Feels Like 67.1 °F
N
0.0
Wind Variable Wind from South

Today
High -- | Low -- °F
--% Chance of Precip.
Yesterday
High -- | Low -- °F
Precip. -- in
5:09 AM 8:12 PM
Waxing Gibbous, 80% visible
Pressure 30.17 in
Visibility 10.0 miles
Clouds Few 4400 ft
Few 25000 ft
Dew Point 58 °F
Humidity 72%
Rainfall 0.00 in
Snow Depth Not available.
UV 0 out of 12
Pollen 10.00 out of 12
Air Quality Not available.
Flu Activity Sporadic
METAR KPSM 290158Z 29007KT 10SM FEW044 FEW250 21/13 A3016 RMK AO2A SLP215 T02050130

More Conditions Fewer Conditions

Pressure 30.17 in
Visibility 10.0 miles
Clouds Few 4400 ft
Few 25000 ft
Dew Point 58 °F
Humidity 72%
Rainfall 0.00 in
Snow Depth Not available.
UV 0 out of 12
Pollen 10.00 out of 12
Air Quality Not available.
Flu Activity Sporadic
METAR KPSM 290158Z 29007KT 10SM FEW044 FEW250 21/13 A3016 RMK AO2A SLP215 T02050130

More Conditions Fewer Conditions

10-Day Weather Forecast

Almanac

Astronomy

May. 28, 2015 Rise Set
Actual Time
Civil Twilight
Nautical Twilight
Astronomical Twilight
Moon
Length of Visible Light
Length of Day
Tomorrow will be .
, % of the Moon is Illuminated

Today's Extremes

State Highs State Lows

Community

WunderPhotos

Upload Photos

1,825,146 photos uploaded!

WunderBlogs® & News

Nearby

Air Quality

  Air Quality AQ Index Pollutant
Not available.

Snow Depth

Station Depth Elevation

Earthquake Activity

City Distance Mag. Time & Date
Minimum magnitude displayed is 2.5.

Coastal Water Temperatures

Place Temperature

Stations

Nearby Weather Stations

Station Location Temp. Windchill Dew Point Humidity Wind Precip. Elev Updated Type